Time;durP1;ratioP1;P1;durP2;ratioP2;P2;SDS_P1;SDS_P2;PMS_P1;PMS_P2;Temp;Humidity;BMP_temperature;BMP_pressure;BME280_temperature;BME280_humidity;BME280_pressure;Samples;Min_cycle;Max_cycle;Signal;HPM_P1;HPM_P2
2021/08/15 00:00:32;;;;;;;42.15;35.85;;;19.80;99.90;;;;;;5130051;27;20050;-75
2021/08/15 00:02:58;;;;;;;44.47;35.17;;;19.80;99.90;;;;;;5125859;27;20391;-75
2021/08/15 00:05:24;;;;;;;49.22;39.63;;;19.80;99.90;;;;;;5116817;27;20106;-75
2021/08/15 00:07:53;;;;;;;50.35;40.92;;;19.80;99.90;;;;;;5125534;27;20019;-75
2021/08/15 00:10:20;;;;;;;43.75;39.05;;;19.80;99.90;;;;;;5124467;27;20059;-74
2021/08/15 00:12:46;;;;;;;45.63;36.50;;;19.70;99.90;;;;;;5125812;27;20018;-74
2021/08/15 00:15:13;;;;;;;48.33;40.25;;;19.70;99.90;;;;;;5126641;27;20031;-74
2021/08/15 00:17:39;;;;;;;48.35;38.75;;;19.70;99.90;;;;;;5132223;27;20356;-74
2021/08/15 00:20:06;;;;;;;45.80;38.92;;;19.70;99.90;;;;;;5129304;27;20031;-74
2021/08/15 00:22:37;;;;;;;42.70;37.00;;;19.60;99.90;;;;;;5133126;27;20019;-74
2021/08/15 00:25:03;;;;;;;42.92;34.75;;;19.60;99.90;;;;;;5123918;27;20387;-74
2021/08/15 00:27:28;;;;;;;42.08;32.90;;;19.60;99.90;;;;;;5131463;27;20020;-74
2021/08/15 00:29:54;;;;;;;39.90;32.58;;;19.50;99.90;;;;;;5129102;27;20026;-74
2021/08/15 00:32:20;;;;;;;42.42;32.97;;;19.50;99.90;;;;;;5131279;27;20040;-74
2021/08/15 00:34:48;;;;;;;37.67;30.98;;;19.50;99.90;;;;;;5135040;27;20090;-74
2021/08/15 00:37:15;;;;;;;41.22;31.05;;;19.50;99.90;;;;;;5127727;27;20351;-74
2021/08/15 00:39:43;;;;;;;39.15;30.70;;;19.50;99.90;;;;;;5134908;27;20114;-74
2021/08/15 00:42:11;;;;;;;47.05;33.00;;;19.40;99.90;;;;;;5130122;27;20023;-74
2021/08/15 00:44:44;;;;;;;41.63;31.52;;;19.40;99.90;;;;;;5123154;27;20448;-75
2021/08/15 00:47:15;;;;;;;40.15;32.03;;;19.40;99.90;;;;;;5126862;27;20434;-75
2021/08/15 00:49:44;;;;;;;38.85;31.80;;;19.30;99.90;;;;;;5129533;27;20099;-75
2021/08/15 00:52:11;;;;;;;34.08;30.00;;;19.40;99.90;;;;;;5130738;27;20429;-75
2021/08/15 00:54:38;;;;;;;36.05;31.80;;;19.30;99.90;;;;;;5131209;27;20118;-75
2021/08/15 00:57:09;;;;;;;33.42;28.27;;;19.30;99.90;;;;;;5121134;27;20019;-75
2021/08/15 00:59:42;;;;;;;35.83;29.13;;;19.30;99.90;;;;;;5130032;27;20488;-75
2021/08/15 01:02:10;;;;;;;34.40;27.27;;;19.30;99.90;;;;;;5133793;27;20080;-77
2021/08/15 01:04:39;;;;;;;34.22;28.50;;;19.30;99.90;;;;;;5131491;27;20030;-77
2021/08/15 01:07:08;;;;;;;32.33;26.92;;;19.30;99.90;;;;;;5126868;27;20038;-77
2021/08/15 01:09:35;;;;;;;33.30;26.95;;;19.30;99.90;;;;;;5124610;27;20110;-77
2021/08/15 01:12:03;;;;;;;31.42;25.67;;;19.20;99.90;;;;;;5123986;27;20024;-77
2021/08/15 01:14:32;;;;;;;34.30;26.23;;;19.20;99.90;;;;;;5126109;27;20429;-76
2021/08/15 01:16:58;;;;;;;32.63;26.42;;;19.20;99.90;;;;;;5127185;27;20011;-76
2021/08/15 01:19:31;;;;;;;36.38;29.88;;;19.20;99.90;;;;;;5116133;28;20027;-77
2021/08/15 01:21:59;;;;;;;32.50;26.38;;;19.20;99.90;;;;;;5134288;27;20015;-77
2021/08/15 01:24:28;;;;;;;33.80;25.75;;;19.20;99.90;;;;;;5115961;28;20062;-77
2021/08/15 01:27:01;;;;;;;30.98;24.92;;;19.20;99.90;;;;;;5115618;28;20019;-77
2021/08/15 01:29:31;;;;;;;30.63;24.17;;;19.20;99.90;;;;;;5122400;28;20019;-77
2021/08/15 01:32:00;;;;;;;32.88;26.52;;;19.10;99.90;;;;;;5117972;28;20020;-77
2021/08/15 01:34:27;;;;;;;29.02;24.98;;;19.10;99.90;;;;;;5128708;28;20019;-77
2021/08/15 01:36:52;;;;;;;30.90;25.40;;;19.10;99.90;;;;;;5130354;28;20023;-77
2021/08/15 01:39:24;;;;;;;30.20;23.25;;;19.10;99.90;;;;;;5127749;28;20035;-78
2021/08/15 01:41:51;;;;;;;27.67;21.63;;;19.10;99.90;;;;;;5128011;28;20027;-77
2021/08/15 01:44:18;;;;;;;27.38;22.23;;;19.10;99.90;;;;;;5132647;28;20459;-77
2021/08/15 01:46:44;;;;;;;35.00;24.90;;;19.10;99.90;;;;;;5123507;27;20459;-77
2021/08/15 01:49:16;;;;;;;25.23;22.13;;;19.10;99.90;;;;;;5119263;28;20023;-77
2021/08/15 01:51:41;;;;;;;27.67;24.38;;;19.00;99.90;;;;;;5123715;28;20050;-77
2021/08/15 01:54:07;;;;;;;29.63;23.00;;;19.00;99.90;;;;;;5131890;27;20380;-77
2021/08/15 01:56:33;;;;;;;29.95;23.65;;;19.00;99.90;;;;;;5128521;28;20034;-77
2021/08/15 01:59:00;;;;;;;29.58;22.80;;;19.00;99.90;;;;;;5129944;27;20020;-77
2021/08/15 02:01:27;;;;;;;27.60;21.98;;;18.90;99.90;;;;;;5114927;28;20055;-77
2021/08/15 02:04:00;;;;;;;26.90;22.42;;;18.90;99.90;;;;;;5127920;28;20026;-77
2021/08/15 02:06:29;;;;;;;26.92;22.20;;;18.90;99.90;;;;;;5127991;28;20948;-77
2021/08/15 02:08:56;;;;;;;25.98;21.20;;;18.90;99.90;;;;;;5133229;28;20483;-77
2021/08/15 02:11:23;;;;;;;28.70;22.10;;;18.90;99.90;;;;;;5130588;28;20094;-77
2021/08/15 02:13:50;;;;;;;30.60;23.67;;;18.80;99.90;;;;;;5128403;27;20094;-77
2021/08/15 02:16:16;;;;;;;28.83;23.50;;;18.80;99.90;;;;;;5137194;27;20471;-77
2021/08/15 02:18:43;;;;;;;27.65;22.95;;;18.80;99.90;;;;;;5133547;27;20023;-77
2021/08/15 02:21:09;;;;;;;27.20;21.35;;;18.80;99.90;;;;;;5137391;27;20535;-77
2021/08/15 02:23:36;;;;;;;23.27;20.73;;;18.80;99.90;;;;;;5126772;27;20050;-77
2021/08/15 02:26:02;;;;;;;24.20;20.63;;;18.80;99.90;;;;;;5120180;27;20035;-77
2021/08/15 02:28:28;;;;;;;28.30;22.05;;;18.70;99.90;;;;;;5134893;27;20012;-77
2021/08/15 02:31:00;;;;;;;30.25;21.13;;;18.70;99.90;;;;;;5135794;27;20020;-77
2021/08/15 02:33:26;;;;;;;26.50;20.90;;;18.70;99.90;;;;;;5129127;27;20502;-76
2021/08/15 02:35:53;;;;;;;27.27;19.42;;;18.70;99.90;;;;;;5126374;27;20375;-76
2021/08/15 02:38:23;;;;;;;22.10;19.00;;;18.70;99.90;;;;;;5129094;27;20056;-77
2021/08/15 02:40:51;;;;;;;24.63;20.23;;;18.70;99.90;;;;;;5127166;27;20385;-77
2021/08/15 02:43:18;;;;;;;25.17;19.60;;;18.60;99.90;;;;;;5137204;27;20061;-77
2021/08/15 02:45:44;;;;;;;22.50;20.13;;;18.60;99.90;;;;;;5135577;27;20058;-77
2021/08/15 02:48:12;;;;;;;22.33;19.17;;;18.60;99.90;;;;;;5137328;27;20050;-77
2021/08/15 02:50:44;;;;;;;23.88;19.65;;;18.60;99.90;;;;;;5135079;27;20020;-77
2021/08/15 02:53:16;;;;;;;25.47;19.03;;;18.60;99.90;;;;;;5136989;27;20027;-77
2021/08/15 02:55:42;;;;;;;26.48;18.75;;;18.60;99.90;;;;;;5131913;27;20120;-77
2021/08/15 02:58:11;;;;;;;28.98;20.85;;;18.50;99.90;;;;;;5136552;27;20056;-77
2021/08/15 03:00:37;;;;;;;22.10;18.05;;;18.40;99.90;;;;;;5129533;27;20035;-77
2021/08/15 03:03:02;;;;;;;30.70;22.15;;;18.40;99.90;;;;;;5130997;27;20097;-77
2021/08/15 03:05:34;;;;;;;30.27;20.60;;;18.40;99.90;;;;;;5125333;27;20019;-77
2021/08/15 03:08:03;;;;;;;24.75;19.67;;;18.40;99.90;;;;;;5134778;27;20022;-77
2021/08/15 03:10:28;;;;;;;26.73;21.05;;;18.40;99.90;;;;;;5135142;27;20122;-76
2021/08/15 03:12:57;;;;;;;33.90;22.73;;;18.30;99.90;;;;;;5132818;27;20145;-76
2021/08/15 03:15:23;;;;;;;31.00;20.27;;;18.30;99.90;;;;;;5135607;27;20138;-77
2021/08/15 03:17:54;;;;;;;26.35;20.33;;;18.30;99.90;;;;;;5129619;27;20106;-77
2021/08/15 03:20:20;;;;;;;28.15;22.05;;;18.30;99.90;;;;;;5135914;27;20055;-76
2021/08/15 03:22:47;;;;;;;30.23;20.20;;;18.30;99.90;;;;;;5136323;27;20072;-76
2021/08/15 03:25:12;;;;;;;29.45;20.35;;;18.30;99.90;;;;;;5121323;27;20035;-76
2021/08/15 03:27:44;;;;;;;29.08;19.58;;;18.20;99.90;;;;;;5135622;27;20030;-76
2021/08/15 03:30:10;;;;;;;29.45;19.02;;;18.30;99.90;;;;;;5130248;27;20585;-77
2021/08/15 03:32:39;;;;;;;29.50;18.42;;;18.20;99.90;;;;;;5131452;27;20093;-76
2021/08/15 03:35:05;;;;;;;27.38;17.85;;;18.30;99.90;;;;;;5133246;27;20031;-76
2021/08/15 03:37:30;;;;;;;29.08;19.65;;;18.20;99.90;;;;;;5135698;27;20023;-76
2021/08/15 03:39:56;;;;;;;24.17;18.90;;;18.20;99.90;;;;;;5131499;27;20019;-76
2021/08/15 03:42:22;;;;;;;28.30;17.55;;;18.20;99.90;;;;;;5136182;27;20019;-76
2021/08/15 03:44:51;;;;;;;31.23;18.90;;;18.20;99.90;;;;;;5134802;27;20027;-76
2021/08/15 03:47:16;;;;;;;30.00;17.02;;;18.20;99.90;;;;;;5133450;27;20027;-76
2021/08/15 03:49:44;;;;;;;28.48;18.45;;;18.30;99.90;;;;;;5129690;27;20038;-76
2021/08/15 03:52:09;;;;;;;25.92;17.70;;;18.30;99.90;;;;;;5120854;27;20019;-76
2021/08/15 03:54:35;;;;;;;32.60;18.13;;;18.20;99.90;;;;;;5126956;27;20083;-76
2021/08/15 03:57:01;;;;;;;27.13;17.23;;;18.30;99.90;;;;;;5135699;27;20016;-76
2021/08/15 03:59:28;;;;;;;27.45;18.75;;;18.30;99.90;;;;;;5129260;27;20019;-76
2021/08/15 04:01:53;;;;;;;28.73;17.33;;;18.30;99.90;;;;;;5131060;27;20058;-76
2021/08/15 04:04:19;;;;;;;28.88;16.52;;;18.30;99.90;;;;;;5135264;27;20043;-76
2021/08/15 04:06:45;;;;;;;34.92;17.88;;;18.30;99.90;;;;;;5127426;27;20028;-76
2021/08/15 04:09:11;;;;;;;29.80;17.13;;;18.30;99.90;;;;;;5135317;27;20073;-76
2021/08/15 04:11:37;;;;;;;26.33;16.95;;;18.40;99.90;;;;;;5130612;27;20060;-76
2021/08/15 04:14:03;;;;;;;24.15;16.55;;;18.40;99.90;;;;;;5134859;27;20019;-76
2021/08/15 04:16:28;;;;;;;20.25;15.10;;;18.40;99.90;;;;;;5135327;27;20115;-76
2021/08/15 04:18:56;;;;;;;23.80;16.02;;;18.40;99.90;;;;;;5131607;27;20019;-76
2021/08/15 04:21:23;;;;;;;23.70;15.45;;;18.40;99.90;;;;;;5135074;27;20126;-76
2021/08/15 04:23:51;;;;;;;21.02;14.63;;;18.40;99.90;;;;;;5119075;27;20030;-76
2021/08/15 04:26:18;;;;;;;21.50;15.25;;;18.40;99.90;;;;;;5135249;27;20394;-76
2021/08/15 04:28:44;;;;;;;23.45;15.05;;;18.40;99.90;;;;;;5135113;27;20057;-76
2021/08/15 04:31:10;;;;;;;23.77;14.52;;;18.40;99.90;;;;;;5135433;27;20111;-76
2021/08/15 04:33:38;;;;;;;23.42;15.70;;;18.40;99.90;;;;;;5131527;27;20439;-76
2021/08/15 04:36:04;;;;;;;24.65;15.45;;;18.40;99.90;;;;;;5133976;27;20426;-76
2021/08/15 04:38:32;;;;;;;25.83;15.68;;;18.30;99.90;;;;;;5134773;27;20019;-76
2021/08/15 04:41:01;;;;;;;23.20;14.80;;;18.30;99.90;;;;;;5129007;27;20111;-76
2021/08/15 04:43:27;;;;;;;28.38;16.75;;;18.30;99.90;;;;;;5128593;27;20020;-76
2021/08/15 04:45:53;;;;;;;29.92;15.43;;;18.30;99.90;;;;;;5130026;27;20474;-76
2021/08/15 04:48:20;;;;;;;28.08;15.65;;;18.30;99.90;;;;;;5133804;27;20020;-76
2021/08/15 04:50:47;;;;;;;33.45;16.70;;;18.20;99.90;;;;;;5118962;27;20051;-76
2021/08/15 04:53:13;;;;;;;25.33;15.65;;;18.30;99.90;;;;;;5127752;27;20019;-76
2021/08/15 04:55:39;;;;;;;24.60;16.25;;;18.30;99.90;;;;;;5113936;28;20072;-76
2021/08/15 04:58:06;;;;;;;26.08;15.38;;;18.30;99.90;;;;;;5128768;27;20026;-76
2021/08/15 05:00:32;;;;;;;25.17;15.45;;;18.30;99.90;;;;;;5124159;27;20019;-76
2021/08/15 05:03:00;;;;;;;28.25;14.85;;;18.20;99.90;;;;;;5131220;27;20027;-76
2021/08/15 05:05:27;;;;;;;24.88;15.52;;;18.30;99.90;;;;;;5125244;27;20573;-76
2021/08/15 05:07:55;;;;;;;29.83;14.57;;;18.30;99.90;;;;;;5129688;27;20019;-76
2021/08/15 05:10:22;;;;;;;23.80;15.52;;;18.30;99.90;;;;;;5132895;27;20027;-76
2021/08/15 05:12:49;;;;;;;24.73;14.88;;;18.30;99.90;;;;;;5121415;27;20019;-76
2021/08/15 05:15:16;;;;;;;23.80;14.75;;;18.40;99.90;;;;;;5127611;27;20019;-76
2021/08/15 05:17:42;;;;;;;25.88;15.55;;;18.30;99.90;;;;;;5132025;27;20034;-76
2021/08/15 05:20:13;;;;;;;22.77;14.95;;;18.30;99.90;;;;;;5122306;27;20027;-76
2021/08/15 05:22:39;;;;;;;24.85;14.35;;;18.40;99.90;;;;;;5122166;27;20097;-76
2021/08/15 05:25:06;;;;;;;31.95;14.43;;;18.40;99.90;;;;;;5133558;27;20507;-76
2021/08/15 05:27:31;;;;;;;23.23;13.13;;;18.40;99.90;;;;;;5118029;27;20078;-76
2021/08/15 05:29:58;;;;;;;25.52;13.63;;;18.40;99.90;;;;;;5126731;28;20072;-76
2021/08/15 05:32:24;;;;;;;24.98;13.60;;;18.50;99.90;;;;;;5134389;27;20063;-76
2021/08/15 05:34:52;;;;;;;20.30;12.50;;;18.50;99.90;;;;;;5125539;27;20475;-76
2021/08/15 05:37:18;;;;;;;18.40;11.30;;;18.60;99.90;;;;;;5128464;28;20382;-76
2021/08/15 05:39:43;;;;;;;18.20;11.77;;;18.60;99.90;;;;;;5122788;28;20023;-76
2021/08/15 05:42:09;;;;;;;14.68;11.45;;;18.70;99.90;;;;;;5124046;28;20032;-76
2021/08/15 05:44:36;;;;;;;21.35;12.82;;;18.70;99.90;;;;;;5125359;28;20115;-76
2021/08/15 05:47:04;;;;;;;18.90;11.57;;;18.80;99.90;;;;;;5131013;27;20051;-76
2021/08/15 05:49:30;;;;;;;15.75;11.25;;;18.80;99.90;;;;;;5129080;27;20106;-76
2021/08/15 05:51:56;;;;;;;18.67;11.73;;;18.80;99.90;;;;;;5136526;27;20019;-76
2021/08/15 05:54:22;;;;;;;19.73;11.52;;;18.80;99.90;;;;;;5131196;27;20016;-76
2021/08/15 05:56:49;;;;;;;19.95;14.23;;;18.80;99.90;;;;;;5130904;27;20032;-76
2021/08/15 05:59:21;;;;;;;21.27;13.23;;;18.80;99.90;;;;;;5129146;27;20474;-76
2021/08/15 06:01:55;;;;;;;25.63;13.15;;;18.90;99.90;;;;;;5134603;27;20491;-76
2021/08/15 06:04:22;;;;;;;23.70;13.68;;;19.00;99.90;;;;;;5130905;27;20046;-76
2021/08/15 06:06:50;;;;;;;24.75;12.88;;;19.00;99.90;;;;;;5133437;27;20023;-76
2021/08/15 06:09:15;;;;;;;22.25;14.20;;;19.00;99.90;;;;;;5134140;27;20055;-76
2021/08/15 06:11:41;;;;;;;24.85;13.27;;;19.00;99.90;;;;;;5137670;27;20049;-76
2021/08/15 06:14:07;;;;;;;24.65;13.10;;;19.00;99.90;;;;;;5137743;27;20023;-76
2021/08/15 06:16:34;;;;;;;22.52;11.70;;;19.10;99.90;;;;;;5125370;27;20046;-76
2021/08/15 06:19:00;;;;;;;22.90;13.30;;;19.10;99.90;;;;;;5129835;27;20356;-76
2021/08/15 06:21:31;;;;;;;21.17;12.15;;;19.10;99.90;;;;;;5127342;27;20106;-76
2021/08/15 06:23:57;;;;;;;20.00;12.63;;;19.20;99.90;;;;;;5126557;27;20054;-76
2021/08/15 06:26:26;;;;;;;19.75;11.75;;;19.30;99.90;;;;;;5119097;27;20059;-76
2021/08/15 06:28:52;;;;;;;24.35;12.82;;;19.30;99.90;;;;;;5136196;27;20426;-76
2021/08/15 06:31:19;;;;;;;24.70;13.23;;;19.40;99.90;;;;;;5135984;27;20015;-76
2021/08/15 06:33:46;;;;;;;22.13;13.73;;;19.40;99.90;;;;;;5135321;27;20095;-76
2021/08/15 06:36:13;;;;;;;25.48;12.60;;;19.40;99.90;;;;;;5135740;27;20031;-76
2021/08/15 06:38:39;;;;;;;18.60;11.93;;;19.50;99.90;;;;;;5136710;27;20034;-76
2021/08/15 06:41:08;;;;;;;25.73;12.52;;;19.50;99.90;;;;;;5137397;27;20019;-76
2021/08/15 06:43:34;;;;;;;20.48;11.43;;;19.50;99.90;;;;;;5124540;27;20479;-76
2021/08/15 06:46:02;;;;;;;20.15;11.65;;;19.60;99.90;;;;;;5132258;27;20022;-76
2021/08/15 06:48:28;;;;;;;21.98;10.77;;;19.50;99.90;;;;;;5137109;27;20019;-76
2021/08/15 06:50:58;;;;;;;23.60;11.82;;;19.60;99.90;;;;;;5126012;27;20024;-76
2021/08/15 06:53:25;;;;;;;19.30;10.68;;;19.60;99.90;;;;;;5133481;27;20054;-76
2021/08/15 06:55:51;;;;;;;23.38;12.48;;;19.70;99.90;;;;;;5134187;27;20475;-76
2021/08/15 06:58:16;;;;;;;19.58;11.68;;;19.70;99.90;;;;;;5127602;27;20046;-76
2021/08/15 07:00:44;;;;;;;21.77;11.05;;;19.60;99.90;;;;;;5133597;27;20020;-76
2021/08/15 07:03:10;;;;;;;18.38;10.15;;;19.70;99.90;;;;;;5132766;27;20050;-76
2021/08/15 07:05:36;;;;;;;21.80;12.20;;;19.80;99.90;;;;;;5136694;27;20066;-76
2021/08/15 07:08:03;;;;;;;26.75;10.77;;;19.90;99.90;;;;;;5132535;27;20034;-77
2021/08/15 07:10:31;;;;;;;20.58;10.90;;;19.90;99.90;;;;;;5136579;27;20034;-77
2021/08/15 07:13:04;;;;;;;21.42;10.88;;;19.90;99.90;;;;;;5131152;27;20031;-76
2021/08/15 07:15:33;;;;;;;18.13;9.45;;;20.00;99.90;;;;;;5135264;27;20023;-76
2021/08/15 07:18:00;;;;;;;16.73;9.35;;;20.00;99.90;;;;;;5134518;27;20124;-76
2021/08/15 07:20:29;;;;;;;16.20;9.93;;;20.10;99.90;;;;;;5117226;27;20023;-76
2021/08/15 07:22:56;;;;;;;17.13;9.65;;;20.10;99.90;;;;;;5121662;27;20020;-76
2021/08/15 07:25:24;;;;;;;17.88;10.05;;;20.20;99.90;;;;;;5121603;27;20043;-76
2021/08/15 07:27:50;;;;;;;15.13;9.40;;;20.30;99.90;;;;;;5126249;27;20055;-76
2021/08/15 07:30:22;;;;;;;17.75;8.93;;;20.40;99.90;;;;;;5135872;27;20032;-76
2021/08/15 07:32:52;;;;;;;19.17;8.52;;;20.40;99.90;;;;;;5132602;27;20023;-77
2021/08/15 07:35:18;;;;;;;23.08;10.07;;;20.40;99.90;;;;;;5134523;27;20023;-77
2021/08/15 07:37:43;;;;;;;14.70;8.80;;;20.40;99.90;;;;;;5136091;27;20106;-77
2021/08/15 07:40:16;;;;;;;12.77;7.80;;;20.40;99.90;;;;;;5135054;27;20102;-77
2021/08/15 07:42:46;;;;;;;15.88;8.13;;;20.50;99.90;;;;;;5130838;27;20023;-77
2021/08/15 07:45:15;;;;;;;13.60;7.03;;;20.60;99.90;;;;;;5120915;27;20027;-77
2021/08/15 07:47:54;;;;;;;12.60;7.13;;;20.70;99.90;;;;;;5136079;27;20019;-77
2021/08/15 07:50:20;;;;;;;16.23;7.70;;;20.70;99.90;;;;;;5135611;27;20379;-77
2021/08/15 07:52:52;;;;;;;15.00;6.95;;;20.70;99.90;;;;;;5135117;27;20023;-77
2021/08/15 07:55:18;;;;;;;12.45;7.43;;;20.80;99.90;;;;;;5134202;27;20027;-77
2021/08/15 07:57:44;;;;;;;16.17;7.88;;;20.90;99.90;;;;;;5135814;27;20088;-77
2021/08/15 08:00:11;;;;;;;13.18;6.60;;;20.90;99.90;;;;;;5132787;27;20037;-77
2021/08/15 08:02:45;;;;;;;12.30;6.82;;;21.00;99.90;;;;;;5129786;27;20094;-77
2021/08/15 08:05:14;;;;;;;14.68;6.95;;;20.90;99.90;;;;;;5130153;27;20030;-77
2021/08/15 08:07:41;;;;;;;12.93;7.00;;;21.00;99.90;;;;;;5135577;27;20439;-77
2021/08/15 08:10:08;;;;;;;14.13;6.43;;;21.20;99.90;;;;;;5132588;27;20490;-77
2021/08/15 08:12:39;;;;;;;9.85;6.05;;;21.30;99.90;;;;;;5133421;27;20046;-77
2021/08/15 08:15:06;;;;;;;9.98;6.60;;;21.30;99.90;;;;;;5134045;27;20027;-77
2021/08/15 08:17:32;;;;;;;10.18;6.05;;;21.40;99.90;;;;;;5129344;27;20024;-77
2021/08/15 08:20:00;;;;;;;15.48;6.90;;;21.40;99.90;;;;;;5124154;27;20031;-77
2021/08/15 08:22:26;;;;;;;12.93;6.35;;;21.50;99.90;;;;;;5122862;27;20473;-77
2021/08/15 08:24:59;;;;;;;10.90;6.20;;;21.60;99.90;;;;;;5132354;27;20106;-78
2021/08/15 08:27:31;;;;;;;10.75;4.93;;;21.60;99.90;;;;;;5131372;27;20058;-77
2021/08/15 08:30:00;;;;;;;16.00;6.32;;;21.70;99.90;;;;;;5133725;27;20383;-78
2021/08/15 08:32:26;;;;;;;14.98;5.80;;;21.80;99.90;;;;;;5134957;27;20032;-77
2021/08/15 08:34:52;;;;;;;11.63;6.22;;;21.80;99.90;;;;;;5132487;27;20054;-77
2021/08/15 08:37:23;;;;;;;8.82;5.70;;;21.80;99.90;;;;;;5127639;27;20069;-78
2021/08/15 08:39:49;;;;;;;9.55;5.70;;;21.90;99.90;;;;;;5133709;27;20023;-78
2021/08/15 08:42:18;;;;;;;7.45;4.72;;;22.00;99.90;;;;;;5134403;27;20039;-78
2021/08/15 08:44:50;;;;;;;10.38;6.22;;;22.20;99.90;;;;;;5130880;27;20099;-78
2021/08/15 08:47:18;;;;;;;9.77;5.73;;;22.50;99.90;;;;;;5133318;27;20127;-78
2021/08/15 08:49:46;;;;;;;11.82;5.60;;;22.50;99.90;;;;;;5127758;27;20461;-78
2021/08/15 08:52:12;;;;;;;8.75;5.55;;;22.60;99.90;;;;;;5118717;27;20026;-77
2021/08/15 08:54:44;;;;;;;8.82;4.70;;;22.60;99.90;;;;;;5120366;27;20028;-78
2021/08/15 08:57:09;;;;;;;9.40;5.05;;;22.70;99.90;;;;;;5134502;27;20023;-78
2021/08/15 08:59:38;;;;;;;11.30;4.97;;;22.80;99.90;;;;;;5134282;27;20034;-78
2021/08/15 09:02:07;;;;;;;7.20;4.68;;;22.80;99.90;;;;;;5134161;27;20328;-78
2021/08/15 09:04:34;;;;;;;10.93;4.47;;;22.80;99.90;;;;;;5134175;27;20023;-78
2021/08/15 09:07:14;;;;;;;7.15;4.40;;;22.80;99.90;;;;;;5134088;27;20015;-78
2021/08/15 09:09:52;;;;;;;6.50;4.38;;;23.00;99.90;;;;;;5123963;27;20035;-77
2021/08/15 09:12:19;;;;;;;10.80;4.78;;;23.10;99.90;;;;;;5121273;27;20052;-78
2021/08/15 09:15:26;;;;;;;6.32;4.35;;;23.40;99.90;;;;;;5132356;27;20019;-77
2021/08/15 09:17:52;;;;;;;6.35;3.75;;;23.60;99.90;;;;;;5126647;27;20038;-77
2021/08/15 09:20:43;;;;;;;8.65;4.43;;;23.90;99.90;;;;;;5127809;27;20464;-77
2021/08/15 09:23:26;;;;;;;7.95;4.25;;;24.20;99.90;;;;;;5122514;27;20411;-77
2021/08/15 09:26:15;;;;;;;8.55;3.80;;;24.30;99.90;;;;;;5121843;27;20084;-78
2021/08/15 09:28:41;;;;;;;7.75;4.03;;;24.50;99.90;;;;;;5123019;28;20041;-78
2021/08/15 09:31:18;;;;;;;6.43;3.33;;;24.60;99.90;;;;;;5134187;27;20023;-78
2021/08/15 09:33:57;;;;;;;8.43;3.83;;;24.70;99.90;;;;;;5113588;28;20031;-78
2021/08/15 09:36:32;;;;;;;6.22;3.80;;;24.80;99.90;;;;;;5113644;28;20024;-78
2021/08/15 09:39:01;;;;;;;6.15;4.15;;;24.90;99.90;;;;;;5119402;28;20027;-78
2021/08/15 09:41:29;;;;;;;5.55;3.78;;;25.00;99.90;;;;;;5127371;28;20019;-78
2021/08/15 09:44:21;;;;;;;8.10;3.92;;;25.10;99.90;;;;;;5118164;28;20076;-78
2021/08/15 09:47:03;;;;;;;8.00;3.85;;;25.30;99.90;;;;;;5130103;27;20023;-78
2021/08/15 09:49:36;;;;;;;10.00;4.13;;;25.40;99.90;;;;;;5118073;28;20471;-78
2021/08/15 09:52:06;;;;;;;5.35;3.28;;;25.50;99.90;;;;;;5132884;28;20510;-78
2021/08/15 09:54:33;;;;;;;6.43;3.80;;;25.60;99.90;;;;;;5129987;27;20065;-78
2021/08/15 09:57:00;;;;;;;6.22;3.90;;;25.80;99.90;;;;;;5130816;28;20019;-78
2021/08/15 09:59:34;;;;;;;4.80;3.63;;;25.90;99.90;;;;;;5133861;27;20398;-78
2021/08/15 10:02:05;;;;;;;9.48;4.22;;;26.10;99.90;;;;;;5132309;28;20015;-78
2021/08/15 10:04:38;;;;;;;4.97;2.95;;;26.20;99.90;;;;;;5120628;28;20024;-78
2021/08/15 10:07:10;;;;;;;6.43;3.58;;;26.30;99.90;;;;;;5114826;28;20483;-78
2021/08/15 10:09:38;;;;;;;6.00;3.20;;;26.50;99.90;;;;;;5133493;28;20521;-78
2021/08/15 10:12:07;;;;;;;5.80;3.15;;;26.50;99.90;;;;;;5118932;27;20024;-78
2021/08/15 10:14:33;;;;;;;8.00;3.45;;;26.70;99.90;;;;;;5120163;28;20066;-79
2021/08/15 10:17:10;;;;;;;5.85;3.10;;;26.80;99.90;;;;;;5117342;28;20047;-79
2021/08/15 10:19:46;;;;;;;5.65;3.20;;;26.90;99.90;;;;;;5133644;27;20098;-79
2021/08/15 10:22:34;;;;;;;5.82;3.90;;;26.90;99.90;;;;;;5122855;28;20073;-78
2021/08/15 10:25:04;;;;;;;6.15;3.22;;;26.90;99.90;;;;;;5123278;28;20038;-78
2021/08/15 10:27:46;;;;;;;4.95;3.45;;;27.00;99.90;;;;;;5123248;27;20055;-78
2021/08/15 10:30:21;;;;;;;5.28;3.33;;;27.00;99.90;;;;;;5131426;28;20103;-78
2021/08/15 10:32:55;;;;;;;7.80;4.20;;;27.20;99.90;;;;;;5117146;28;20019;-78
2021/08/15 10:35:24;;;;;;;6.32;3.22;;;27.30;99.90;;;;;;5134708;27;20173;-78
2021/08/15 10:38:21;;;;;;;8.13;3.22;;;27.30;99.90;;;;;;5133585;27;20023;-78
2021/08/15 10:40:49;;;;;;;5.82;2.92;;;27.40;99.90;;;;;;5122375;27;20047;-78
2021/08/15 10:43:36;;;;;;;7.97;3.20;;;27.40;99.90;;;;;;5133346;27;20113;-78
2021/08/15 10:46:18;;;;;;;6.18;3.47;;;27.50;99.90;;;;;;5130808;27;20031;-78
2021/08/15 10:48:57;;;;;;;7.93;3.05;;;27.60;99.90;;;;;;5127561;27;20378;-78
2021/08/15 10:51:51;;;;;;;7.60;3.75;;;27.80;99.90;;;;;;5136779;27;20492;-78
2021/08/15 10:54:27;;;;;;;8.15;3.63;;;28.00;99.90;;;;;;5137020;27;20360;-78
2021/08/15 10:57:08;;;;;;;7.15;3.35;;;28.10;99.50;;;;;;5136773;27;20019;-78
2021/08/15 10:59:40;;;;;;;9.02;3.75;;;28.30;99.70;;;;;;5136260;27;20031;-78
2021/08/15 11:02:13;;;;;;;5.65;3.45;;;28.40;99.10;;;;;;5130731;27;20059;-79
2021/08/15 11:04:55;;;;;;;6.53;3.25;;;28.40;99.00;;;;;;5124498;27;20375;-79
2021/08/15 11:07:41;;;;;;;5.65;3.15;;;28.30;99.60;;;;;;5136892;27;20348;-79
2021/08/15 11:10:08;;;;;;;9.00;3.58;;;28.50;98.90;;;;;;5130456;27;20050;-79
2021/08/15 11:13:15;;;;;;;8.40;3.50;;;28.50;99.50;;;;;;5123438;27;20038;-79
2021/08/15 11:15:43;;;;;;;6.60;3.58;;;28.70;99.70;;;;;;5134906;27;20471;-79
2021/08/15 11:18:14;;;;;;;5.72;3.90;;;28.70;99.90;;;;;;5135881;27;20019;-78
2021/08/15 11:20:47;;;;;;;5.25;3.15;;;28.60;98.40;;;;;;5133095;27;20135;-78
2021/08/15 11:23:40;;;;;;;7.00;3.95;;;28.70;97.70;;;;;;5119751;27;20058;-78
2021/08/15 11:26:12;;;;;;;5.38;2.88;;;28.80;98.10;;;;;;5122674;27;20045;-79
2021/08/15 11:28:38;;;;;;;7.10;4.35;;;28.90;98.90;;;;;;5126980;27;20110;-79
2021/08/15 11:31:04;;;;;;;9.65;3.60;;;29.10;98.50;;;;;;5119251;27;20103;-79
2021/08/15 11:33:36;;;;;;;6.68;3.47;;;29.10;99.80;;;;;;5124452;27;20030;-79
2021/08/15 11:36:12;;;;;;;6.88;3.80;;;29.00;98.00;;;;;;5135698;27;20034;-79
2021/08/15 11:38:47;;;;;;;7.40;3.70;;;29.10;97.30;;;;;;5136208;27;20015;-79
2021/08/15 11:41:13;;;;;;;4.57;3.53;;;29.10;97.60;;;;;;5121315;27;20039;-79
2021/08/15 11:43:55;;;;;;;7.35;3.47;;;29.00;98.40;;;;;;5115191;28;20020;-79
2021/08/15 11:46:22;;;;;;;5.13;3.85;;;29.10;98.10;;;;;;5122829;27;20034;-79
2021/08/15 11:48:49;;;;;;;5.65;3.63;;;29.10;97.80;;;;;;5135952;27;20486;-79
2021/08/15 11:51:14;;;;;;;6.50;3.75;;;29.30;97.70;;;;;;5135732;27;20107;-79
2021/08/15 11:53:44;;;;;;;8.60;3.53;;;29.30;95.60;;;;;;5131223;27;20451;-79
2021/08/15 11:56:17;;;;;;;7.50;3.58;;;29.30;96.80;;;;;;5128839;27;20034;-79
2021/08/15 11:58:47;;;;;;;8.15;3.80;;;29.40;97.30;;;;;;5131838;27;20479;-79
2021/08/15 12:01:17;;;;;;;7.05;3.88;;;29.40;96.80;;;;;;5126482;27;20075;-79
2021/08/15 12:04:16;;;;;;;6.30;4.13;;;29.50;97.00;;;;;;5132516;27;20046;-79
2021/08/15 12:06:42;;;;;;;6.32;3.92;;;29.60;96.70;;;;;;5083159;27;20042;-79
2021/08/15 12:09:25;;;;;;;5.18;3.55;;;29.40;96.50;;;;;;5118561;27;20103;-79
2021/08/15 12:12:04;;;;;;;6.07;3.63;;;29.60;96.40;;;;;;5131389;27;20034;-80
2021/08/15 12:14:37;;;;;;;7.78;4.45;;;29.60;96.70;;;;;;5131732;27;20019;-80
2021/08/15 12:17:03;;;;;;;5.22;3.75;;;29.70;97.80;;;;;;5135217;27;20023;-80
2021/08/15 12:19:32;;;;;;;5.85;3.58;;;29.70;97.50;;;;;;5121898;27;20028;-80
2021/08/15 12:22:17;;;;;;;6.97;3.83;;;29.70;97.30;;;;;;5134832;27;20034;-77
2021/08/15 12:24:57;;;;;;;7.03;3.67;;;29.50;96.30;;;;;;5134674;27;20072;-77
2021/08/15 12:27:23;;;;;;;4.85;3.38;;;29.50;97.10;;;;;;5129586;27;20432;-77
2021/08/15 12:29:56;;;;;;;5.65;3.60;;;29.70;98.00;;;;;;5121584;27;20007;-77
2021/08/15 12:32:33;;;;;;;6.55;3.80;;;29.70;96.50;;;;;;5120855;27;20575;-77
2021/08/15 12:35:05;;;;;;;8.13;3.50;;;29.80;96.40;;;;;;5129155;27;20019;-77
2021/08/15 12:37:40;;;;;;;5.57;3.17;;;29.70;95.70;;;;;;5114479;28;20027;-77
2021/08/15 12:40:14;;;;;;;5.50;3.38;;;29.90;96.00;;;;;;5114175;28;20080;-77
2021/08/15 12:43:05;;;;;;;5.40;4.05;;;29.90;95.30;;;;;;5124068;27;20022;-77
2021/08/15 12:45:37;;;;;;;6.78;3.40;;;29.80;94.80;;;;;;5126191;27;21642;-77